< Typhoon 199504 1995 Season Typhoon 199506 >
Typhoon 199505 (HELEN)
General InformationTrack Information on Google MapsDetailed Wind InformationList of All Images || Disaster Info.ResourceGoogle EarthGE AnimationAtom FeedGeoJSON
Detalied Best Track (Time Zone = UTC)
Year Month Day Hour Lat. Long. Pressure (hPa) Wind (kt) Class Image Chart
1995 8 7 06 15.2 133.0 1006 0 2 Image Chart
1995 8 7 12 16.0 131.9 1006 0 2 Image Chart
1995 8 7 18 16.9 130.9 1006 0 2 Image Chart
1995 8 8 00 17.9 130.0 1006 0 2 Image Chart
1995 8 8 06 18.4 128.8 1004 0 2 Image Chart
1995 8 8 12 18.6 127.1 1004 0 2 Image Chart
1995 8 8 18 18.8 125.3 1002 0 2 Image Chart
1995 8 9 00 19.2 123.5 1000 0 2 Image Chart
1995 8 9 06 19.4 121.6 998 35 3 Image Chart
1995 8 9 12 19.3 120.3 998 35 3 Image Chart
1995 8 9 18 18.9 119.4 996 40 3 Image Chart
1995 8 10 00 18.5 118.5 996 40 3 Image Chart
1995 8 10 06 18.3 117.7 996 40 3 Image Chart
1995 8 10 12 18.4 116.7 994 40 3 Image Chart
1995 8 10 18 18.6 116.2 992 45 3 Image Chart
1995 8 11 00 19.0 115.8 990 45 3 Image Chart
1995 8 11 06 19.9 115.3 985 50 4 Image Chart
1995 8 11 12 20.7 115.0 985 50 4 Image Chart
1995 8 11 18 21.4 114.7 985 50 4 Image Chart
1995 8 12 00 22.4 114.7 990 45 3 Image Chart
1995 8 12 06 23.4 114.5 994 40 3 Image Chart
1995 8 12 12 24.2 114.5 998 35 3 Image Chart
1995 8 12 18 25.1 114.9 1002 0 2 Image Chart
1995 8 13 00 26.5 115.4 1004 0 2 Image Chart
Japan Meteorological Agency Best Track Data | Correction Date : 1996-01-19
< Typhoon 199504 1995 Season Typhoon 199506 >

Help